ポンペイ島 の空港の天気 - METARとTAF

ポンペイ国際空港 ( PTPN / PNI ) - ミクロネシア連邦 ポンペイ島
飛行場実況気象(Metar)
観測時間01/23 14:51 +11 (01/23 03:51 UTC)
風向・風速東北東 5m/s
視程10km以上
天気現象
全天の8割程度の雲 雲底高度 550m
全天の8割程度の雲 雲底高度 3960m
全天を覆う雲 雲底高度 9140m
気温30℃
湿度75%
気圧1005hPa
METARPTPN 230351Z 06010KT 15SM BKN018TCU BKN130 OVC300 30/25 A2967 RMK TCU SE-SW
過去の天気等 Google飛行場航空写真 Wunderground天気予報

過去48時間のMETAR

飛行場予報(TAF)
発表時間: 1/23 10:38 +11 (1/22 23:38 UTC)
予報対象時間: 23日11時 +11 ~ 24日11時 +11
風向・風速東北東 8m/s
視程10km以上
天気現象周辺でしゅう雨
全天の4割程度の雲 雲底高度 490m
全天の4割程度の雲 雲底高度 1,220m
全天の8割程度の雲 雲底高度 3,660m
23日11時 +11 ~ 23日14時 +11 に一時的に
視程8,050m
天気現象しゅう雨
全天の8割程度の雲 雲底高度 490m
全天を覆う雲 雲底高度 910m
23日14時 +11 から
風向・風速東北東 6m/s
視程10km以上
少しの雲 雲底高度 550m
全天の4割程度の雲 雲底高度 1,520m
PTPN 222338Z 2300/2324 06015KT P6SM VCSH SCT016 SCT040 BKN120
TEMPO 2300/2303 5SM SHRA BKN016 OVC030
FM230300 06012KT P6SM FEW018 SCT050